Terminal Aerodrome Forecast
Issued by NWS Cleveland, OH

Home | Current Version | Previous Version | Text Only | Print | Product List | Glossary Off
Versions: 1 2 3 4 5 6 7 8 9 10 11 12 13 14 15 16 17 18

000
FTUS41 KCLE 032335
TAFCLE
TAF
KCLE 032335Z 0400/0506 03008KT P6SM SCT100 BKN200
     FM040200 06004KT P6SM BKN200
     FM040900 33004KT P6SM SCT200
     FM041500 33008KT P6SM SCT200
     FM042100 36006KT P6SM SKC
     FM050200 18004KT P6SM SKC=

USA.gov is the U.S. government's official web portal to all federal, state and local government web resources and services.